Terminal Aerodrome Forecast
Issued by NWS

Home | Current Version | Previous Version | Text Only | Print | Product List | Glossary On
Versions: 1 2 3 4 5 6 7 8 9 10 11 12 13 14 15 16
000
FTUS43 KIWX 272300
TAFSBN
TAF
KSBN 272340Z 2800/2824 35011G17KT P6SM BKN040
     FM280100 36009KT P6SM SCT040
     FM280300 01005KT P6SM FEW250
     FM281800 33007KT P6SM FEW200=

USA.gov is the U.S. government's official web portal to all federal, state and local government web resources and services.